sensor_id;sensor_type;location;lat;lon;timestamp;pressure;altitude;pressure_sealevel;temperature;humidity
6194;BME280;3130;41.564;23.280;2023-05-21T00:01:06;98472.50;;;17.62;71.05
6194;BME280;3130;41.564;23.280;2023-05-21T00:03:33;98472.19;;;17.65;70.48
6194;BME280;3130;41.564;23.280;2023-05-21T00:06:00;98469.84;;;17.72;70.30
6194;BME280;3130;41.564;23.280;2023-05-21T00:08:28;98466.50;;;17.79;69.58
6194;BME280;3130;41.564;23.280;2023-05-21T00:10:55;98462.94;;;17.80;69.38
6194;BME280;3130;41.564;23.280;2023-05-21T00:13:22;98469.09;;;17.79;69.36
6194;BME280;3130;41.564;23.280;2023-05-21T00:15:49;98471.91;;;17.68;69.77
6194;BME280;3130;41.564;23.280;2023-05-21T00:18:17;98472.25;;;17.83;69.25
6194;BME280;3130;41.564;23.280;2023-05-21T00:20:44;98458.38;;;17.92;68.94
6194;BME280;3130;41.564;23.280;2023-05-21T00:23:12;98444.66;;;17.99;68.65
6194;BME280;3130;41.564;23.280;2023-05-21T00:25:43;98445.00;;;17.87;68.96
6194;BME280;3130;41.564;23.280;2023-05-21T00:28:11;98436.19;;;17.97;68.44
6194;BME280;3130;41.564;23.280;2023-05-21T00:30:38;98442.63;;;17.93;68.68
6194;BME280;3130;41.564;23.280;2023-05-21T00:33:07;98397.34;;;17.88;68.37
6194;BME280;3130;41.564;23.280;2023-05-21T00:35:39;98422.03;;;18.09;68.34
6194;BME280;3130;41.564;23.280;2023-05-21T00:38:06;98424.31;;;18.12;68.45
6194;BME280;3130;41.564;23.280;2023-05-21T00:40:33;98431.50;;;18.18;68.55
6194;BME280;3130;41.564;23.280;2023-05-21T00:43:01;98415.59;;;17.96;69.08
6194;BME280;3130;41.564;23.280;2023-05-21T00:45:28;98438.34;;;18.02;69.37
6194;BME280;3130;41.564;23.280;2023-05-21T00:47:55;98423.84;;;17.91;69.64
6194;BME280;3130;41.564;23.280;2023-05-21T00:50:22;98437.44;;;18.11;69.30
6194;BME280;3130;41.564;23.280;2023-05-21T00:52:51;98435.22;;;18.16;69.09
6194;BME280;3130;41.564;23.280;2023-05-21T00:55:19;98425.47;;;18.27;68.81
6194;BME280;3130;41.564;23.280;2023-05-21T00:57:46;98428.63;;;18.21;68.60
6194;BME280;3130;41.564;23.280;2023-05-21T01:00:14;98425.53;;;18.00;69.60
6194;BME280;3130;41.564;23.280;2023-05-21T01:02:41;98413.38;;;17.83;69.89
6194;BME280;3130;41.564;23.280;2023-05-21T01:05:09;98414.78;;;17.60;71.18
6194;BME280;3130;41.564;23.280;2023-05-21T01:07:37;98394.63;;;17.54;71.08
6194;BME280;3130;41.564;23.280;2023-05-21T01:10:09;98415.72;;;17.59;71.44
6194;BME280;3130;41.564;23.280;2023-05-21T01:12:38;98417.38;;;17.43;71.65
6194;BME280;3130;41.564;23.280;2023-05-21T01:15:07;98418.63;;;17.29;72.50
6194;BME280;3130;41.564;23.280;2023-05-21T01:17:35;98416.31;;;17.26;72.12
6194;BME280;3130;41.564;23.280;2023-05-21T01:20:06;98424.59;;;17.39;72.22
6194;BME280;3130;41.564;23.280;2023-05-21T01:22:37;98422.78;;;17.49;72.18
6194;BME280;3130;41.564;23.280;2023-05-21T01:25:09;98401.19;;;17.49;71.82
6194;BME280;3130;41.564;23.280;2023-05-21T01:27:36;98415.38;;;17.54;72.29
6194;BME280;3130;41.564;23.280;2023-05-21T01:30:04;98409.34;;;17.54;72.64
6194;BME280;3130;41.564;23.280;2023-05-21T01:32:37;98381.66;;;17.37;71.97
6194;BME280;3130;41.564;23.280;2023-05-21T01:35:09;98404.91;;;17.46;72.73
6194;BME280;3130;41.564;23.280;2023-05-21T01:37:43;98388.41;;;17.30;73.11
6194;BME280;3130;41.564;23.280;2023-05-21T01:40:15;98407.88;;;17.51;72.95
6194;BME280;3130;41.564;23.280;2023-05-21T01:42:44;98394.03;;;17.43;72.97
6194;BME280;3130;41.564;23.280;2023-05-21T01:45:14;98395.88;;;17.50;72.71
6194;BME280;3130;41.564;23.280;2023-05-21T01:47:44;98401.53;;;17.46;72.36
6194;BME280;3130;41.564;23.280;2023-05-21T01:50:13;98395.13;;;17.40;72.42
6194;BME280;3130;41.564;23.280;2023-05-21T01:52:47;98394.09;;;17.33;72.92
6194;BME280;3130;41.564;23.280;2023-05-21T01:55:16;98389.72;;;17.34;72.81
6194;BME280;3130;41.564;23.280;2023-05-21T01:57:44;98394.59;;;17.37;72.99
6194;BME280;3130;41.564;23.280;2023-05-21T02:00:12;98392.59;;;17.04;74.24
6194;BME280;3130;41.564;23.280;2023-05-21T02:02:39;98382.50;;;17.01;73.92
6194;BME280;3130;41.564;23.280;2023-05-21T02:05:07;98381.34;;;17.13;73.81
6194;BME280;3130;41.564;23.280;2023-05-21T02:07:34;98382.03;;;17.15;73.65
6194;BME280;3130;41.564;23.280;2023-05-21T02:10:02;98377.50;;;17.17;73.89
6194;BME280;3130;41.564;23.280;2023-05-21T02:12:30;98369.22;;;17.14;73.81
6194;BME280;3130;41.564;23.280;2023-05-21T02:14:57;98386.84;;;17.27;73.81
6194;BME280;3130;41.564;23.280;2023-05-21T02:17:24;98361.16;;;17.17;72.97
6194;BME280;3130;41.564;23.280;2023-05-21T02:19:55;98385.78;;;17.03;73.77
6194;BME280;3130;41.564;23.280;2023-05-21T02:22:22;98378.28;;;17.00;74.22
6194;BME280;3130;41.564;23.280;2023-05-21T02:24:49;98378.41;;;17.08;73.68
6194;BME280;3130;41.564;23.280;2023-05-21T02:27:16;98380.03;;;17.26;73.42
6194;BME280;3130;41.564;23.280;2023-05-21T02:29:44;98380.69;;;17.38;72.59
6194;BME280;3130;41.564;23.280;2023-05-21T02:32:11;98371.50;;;17.43;71.27
6194;BME280;3130;41.564;23.280;2023-05-21T02:34:38;98381.66;;;17.37;71.83
6194;BME280;3130;41.564;23.280;2023-05-21T02:37:07;98379.91;;;17.28;72.51
6194;BME280;3130;41.564;23.280;2023-05-21T02:39:34;98378.06;;;17.20;72.55
6194;BME280;3130;41.564;23.280;2023-05-21T02:42:01;98374.91;;;17.17;72.94
6194;BME280;3130;41.564;23.280;2023-05-21T02:44:28;98372.72;;;17.22;72.54
6194;BME280;3130;41.564;23.280;2023-05-21T02:46:56;98381.41;;;17.30;72.05
6194;BME280;3130;41.564;23.280;2023-05-21T02:49:23;98388.78;;;17.25;72.96
6194;BME280;3130;41.564;23.280;2023-05-21T02:51:50;98387.81;;;17.26;73.08
6194;BME280;3130;41.564;23.280;2023-05-21T02:54:17;98384.53;;;17.34;73.03
6194;BME280;3130;41.564;23.280;2023-05-21T02:56:44;98383.00;;;17.41;73.41
6194;BME280;3130;41.564;23.280;2023-05-21T02:59:11;98382.03;;;17.42;73.99
6194;BME280;3130;41.564;23.280;2023-05-21T03:01:38;98388.91;;;17.33;74.50
6194;BME280;3130;41.564;23.280;2023-05-21T03:04:07;98383.06;;;17.31;75.53
6194;BME280;3130;41.564;23.280;2023-05-21T03:06:34;98390.47;;;17.17;76.59
6194;BME280;3130;41.564;23.280;2023-05-21T03:09:01;98393.00;;;17.26;77.31
6194;BME280;3130;41.564;23.280;2023-05-21T03:11:29;98354.13;;;17.09;77.15
6194;BME280;3130;41.564;23.280;2023-05-21T03:13:56;98342.63;;;17.12;77.00
6194;BME280;3130;41.564;23.280;2023-05-21T03:16:23;98389.94;;;17.40;77.53
6194;BME280;3130;41.564;23.280;2023-05-21T03:18:49;98339.31;;;17.19;77.58
6194;BME280;3130;41.564;23.280;2023-05-21T03:21:18;98397.13;;;17.46;77.22
6194;BME280;3130;41.564;23.280;2023-05-21T03:23:47;98401.34;;;17.30;78.13
6194;BME280;3130;41.564;23.280;2023-05-21T03:26:14;98353.34;;;16.99;78.36
6194;BME280;3130;41.564;23.280;2023-05-21T03:28:41;98400.41;;;17.21;78.69
6194;BME280;3130;41.564;23.280;2023-05-21T03:31:08;98400.25;;;17.32;78.15
6194;BME280;3130;41.564;23.280;2023-05-21T03:33:35;98401.81;;;17.43;78.01
6194;BME280;3130;41.564;23.280;2023-05-21T03:36:02;98402.25;;;17.56;77.84
6194;BME280;3130;41.564;23.280;2023-05-21T03:38:30;98380.53;;;17.39;77.72
6194;BME280;3130;41.564;23.280;2023-05-21T03:40:57;98410.38;;;17.43;77.86
6194;BME280;3130;41.564;23.280;2023-05-21T03:43:24;98395.38;;;17.20;78.83
6194;BME280;3130;41.564;23.280;2023-05-21T03:45:51;98406.28;;;17.14;79.27
6194;BME280;3130;41.564;23.280;2023-05-21T03:48:18;98407.69;;;17.09;79.10
6194;BME280;3130;41.564;23.280;2023-05-21T03:50:45;98410.97;;;17.11;79.59
6194;BME280;3130;41.564;23.280;2023-05-21T03:53:12;98384.53;;;17.07;79.16
6194;BME280;3130;41.564;23.280;2023-05-21T03:55:41;98408.72;;;17.25;79.90
6194;BME280;3130;41.564;23.280;2023-05-21T03:58:08;98407.72;;;17.35;79.66
6194;BME280;3130;41.564;23.280;2023-05-21T04:00:35;98404.00;;;17.38;79.65
6194;BME280;3130;41.564;23.280;2023-05-21T04:03:02;98407.56;;;17.37;79.79
6194;BME280;3130;41.564;23.280;2023-05-21T04:05:29;98409.03;;;17.39;79.69
6194;BME280;3130;41.564;23.280;2023-05-21T04:07:57;98392.72;;;17.29;80.52
6194;BME280;3130;41.564;23.280;2023-05-21T04:10:24;98418.09;;;17.53;80.06
6194;BME280;3130;41.564;23.280;2023-05-21T04:12:53;98419.59;;;17.55;79.50
6194;BME280;3130;41.564;23.280;2023-05-21T04:15:20;98421.75;;;17.60;79.23
6194;BME280;3130;41.564;23.280;2023-05-21T04:17:47;98409.88;;;17.57;78.92
6194;BME280;3130;41.564;23.280;2023-05-21T04:20:14;98403.38;;;17.53;78.86
6194;BME280;3130;41.564;23.280;2023-05-21T04:22:42;98409.22;;;17.55;78.98
6194;BME280;3130;41.564;23.280;2023-05-21T04:25:09;98406.63;;;17.55;79.16
6194;BME280;3130;41.564;23.280;2023-05-21T04:27:36;98401.38;;;17.65;78.47
6194;BME280;3130;41.564;23.280;2023-05-21T04:30:07;98410.19;;;17.54;78.60
6194;BME280;3130;41.564;23.280;2023-05-21T04:32:35;98400.56;;;17.47;77.94
6194;BME280;3130;41.564;23.280;2023-05-21T04:35:03;98418.03;;;17.62;78.06
6194;BME280;3130;41.564;23.280;2023-05-21T04:37:30;98420.34;;;17.65;78.51
6194;BME280;3130;41.564;23.280;2023-05-21T04:39:59;98421.47;;;17.63;79.50
6194;BME280;3130;41.564;23.280;2023-05-21T04:42:27;98432.13;;;17.60;79.81
6194;BME280;3130;41.564;23.280;2023-05-21T04:44:54;98417.22;;;17.62;79.69
6194;BME280;3130;41.564;23.280;2023-05-21T04:47:25;98409.06;;;17.57;79.47
6194;BME280;3130;41.564;23.280;2023-05-21T04:49:54;98402.09;;;17.57;79.63
6194;BME280;3130;41.564;23.280;2023-05-21T04:52:21;98425.91;;;17.70;79.70
6194;BME280;3130;41.564;23.280;2023-05-21T04:54:49;98425.91;;;17.70;79.26
6194;BME280;3130;41.564;23.280;2023-05-21T04:57:18;98419.16;;;17.60;80.64
6194;BME280;3130;41.564;23.280;2023-05-21T04:59:46;98413.75;;;17.53;81.00
6194;BME280;3130;41.564;23.280;2023-05-21T05:02:13;98414.56;;;17.54;80.05
6194;BME280;3130;41.564;23.280;2023-05-21T05:04:42;98400.84;;;17.44;80.69
6194;BME280;3130;41.564;23.280;2023-05-21T05:07:09;98420.25;;;17.57;80.69
6194;BME280;3130;41.564;23.280;2023-05-21T05:09:36;98411.81;;;17.73;80.51
6194;BME280;3130;41.564;23.280;2023-05-21T05:12:04;98398.94;;;17.81;80.43
6194;BME280;3130;41.564;23.280;2023-05-21T05:14:31;98404.56;;;17.94;79.68
6194;BME280;3130;41.564;23.280;2023-05-21T05:16:58;98415.31;;;17.99;79.30
6194;BME280;3130;41.564;23.280;2023-05-21T05:19:25;98405.34;;;17.94;78.86
6194;BME280;3130;41.564;23.280;2023-05-21T05:21:53;98415.72;;;18.12;78.88
6194;BME280;3130;41.564;23.280;2023-05-21T05:24:20;98409.56;;;18.13;77.95
6194;BME280;3130;41.564;23.280;2023-05-21T05:26:47;98404.59;;;18.02;75.32
6194;BME280;3130;41.564;23.280;2023-05-21T05:29:14;98392.25;;;17.96;76.49
6194;BME280;3130;41.564;23.280;2023-05-21T05:31:41;98398.69;;;18.09;76.51
6194;BME280;3130;41.564;23.280;2023-05-21T05:34:08;98401.25;;;18.26;76.33
6194;BME280;3130;41.564;23.280;2023-05-21T05:36:35;98389.69;;;18.21;76.40
6194;BME280;3130;41.564;23.280;2023-05-21T05:39:04;98382.50;;;18.15;74.91
6194;BME280;3130;41.564;23.280;2023-05-21T05:41:32;98397.22;;;18.24;76.31
6194;BME280;3130;41.564;23.280;2023-05-21T05:43:59;98383.75;;;18.28;75.29
6194;BME280;3130;41.564;23.280;2023-05-21T05:46:27;98352.91;;;18.25;75.17
6194;BME280;3130;41.564;23.280;2023-05-21T05:48:54;98375.78;;;18.47;75.17
6194;BME280;3130;41.564;23.280;2023-05-21T05:51:21;98386.84;;;18.57;75.00
6194;BME280;3130;41.564;23.280;2023-05-21T05:53:48;98382.38;;;18.67;74.91
6194;BME280;3130;41.564;23.280;2023-05-21T05:56:16;98359.81;;;18.42;74.28
6194;BME280;3130;41.564;23.280;2023-05-21T05:58:43;98391.44;;;18.63;73.99
6194;BME280;3130;41.564;23.280;2023-05-21T06:01:10;98384.50;;;18.72;74.11
6194;BME280;3130;41.564;23.280;2023-05-21T06:03:37;98391.50;;;18.79;74.29
6194;BME280;3130;41.564;23.280;2023-05-21T06:06:04;98379.69;;;18.85;74.96
6194;BME280;3130;41.564;23.280;2023-05-21T06:08:31;98385.59;;;18.95;74.28
6194;BME280;3130;41.564;23.280;2023-05-21T06:10:59;98381.84;;;18.97;72.90
6194;BME280;3130;41.564;23.280;2023-05-21T06:13:27;98381.94;;;19.13;71.48
6194;BME280;3130;41.564;23.280;2023-05-21T06:15:54;98387.00;;;19.23;71.31
6194;BME280;3130;41.564;23.280;2023-05-21T06:18:21;98381.34;;;19.35;71.99
6194;BME280;3130;41.564;23.280;2023-05-21T06:20:48;98386.91;;;19.48;72.61
6194;BME280;3130;41.564;23.280;2023-05-21T06:23:15;98390.16;;;19.50;73.45
6194;BME280;3130;41.564;23.280;2023-05-21T06:25:42;98385.94;;;19.41;73.59
6194;BME280;3130;41.564;23.280;2023-05-21T06:28:09;98385.91;;;19.33;73.78
6194;BME280;3130;41.564;23.280;2023-05-21T06:30:38;98384.88;;;19.26;73.78
6194;BME280;3130;41.564;23.280;2023-05-21T06:33:05;98372.19;;;19.15;74.15
6194;BME280;3130;41.564;23.280;2023-05-21T06:35:32;98374.78;;;19.15;74.75
6194;BME280;3130;41.564;23.280;2023-05-21T06:38:01;98375.88;;;19.05;75.24
6194;BME280;3130;41.564;23.280;2023-05-21T06:40:28;98384.94;;;18.93;75.17
6194;BME280;3130;41.564;23.280;2023-05-21T06:42:55;98389.41;;;18.83;76.87
6194;BME280;3130;41.564;23.280;2023-05-21T06:45:24;98373.03;;;18.90;77.61
6194;BME280;3130;41.564;23.280;2023-05-21T06:47:52;98359.31;;;19.06;77.64
6194;BME280;3130;41.564;23.280;2023-05-21T06:50:19;98367.00;;;19.15;77.69
6194;BME280;3130;41.564;23.280;2023-05-21T06:52:46;98367.84;;;19.24;77.17
6194;BME280;3130;41.564;23.280;2023-05-21T06:55:13;98352.34;;;19.06;77.08
6194;BME280;3130;41.564;23.280;2023-05-21T06:57:40;98321.09;;;18.98;77.00
6194;BME280;3130;41.564;23.280;2023-05-21T07:00:09;98369.97;;;19.44;76.55
6194;BME280;3130;41.564;23.280;2023-05-21T07:02:36;98338.44;;;19.31;76.56
6194;BME280;3130;41.564;23.280;2023-05-21T07:05:05;98366.63;;;19.67;76.22
6194;BME280;3130;41.564;23.280;2023-05-21T07:07:32;98363.22;;;19.91;75.40
6194;BME280;3130;41.564;23.280;2023-05-21T07:10:01;98358.50;;;20.18;74.37
6194;BME280;3130;41.564;23.280;2023-05-21T07:12:28;98364.16;;;20.45;72.94
6194;BME280;3130;41.564;23.280;2023-05-21T07:14:55;98360.84;;;20.51;72.62
6194;BME280;3130;41.564;23.280;2023-05-21T07:17:22;98348.34;;;20.55;72.89
6194;BME280;3130;41.564;23.280;2023-05-21T07:19:49;98348.81;;;20.58;73.03
6194;BME280;3130;41.564;23.280;2023-05-21T07:22:17;98348.63;;;20.60;72.91
6194;BME280;3130;41.564;23.280;2023-05-21T07:24:44;98361.19;;;20.48;71.27
6194;BME280;3130;41.564;23.280;2023-05-21T07:27:11;98358.31;;;20.28;69.95
6194;BME280;3130;41.564;23.280;2023-05-21T07:29:38;98355.88;;;20.34;69.68
6194;BME280;3130;41.564;23.280;2023-05-21T07:32:05;98357.00;;;20.39;69.39
6194;BME280;3130;41.564;23.280;2023-05-21T07:34:33;98359.91;;;20.44;68.87
6194;BME280;3130;41.564;23.280;2023-05-21T07:36:59;98367.72;;;20.44;68.95
6194;BME280;3130;41.564;23.280;2023-05-21T07:39:28;98366.28;;;20.34;69.40
6194;BME280;3130;41.564;23.280;2023-05-21T07:41:55;98355.41;;;20.15;69.97
6194;BME280;3130;41.564;23.280;2023-05-21T07:44:22;98374.63;;;20.06;71.30
6194;BME280;3130;41.564;23.280;2023-05-21T07:46:49;98374.94;;;20.03;71.76
6194;BME280;3130;41.564;23.280;2023-05-21T07:49:16;98337.81;;;19.85;72.30
6194;BME280;3130;41.564;23.280;2023-05-21T07:51:44;98367.44;;;20.16;72.39
6194;BME280;3130;41.564;23.280;2023-05-21T07:54:11;98357.50;;;20.27;72.57
6194;BME280;3130;41.564;23.280;2023-05-21T07:56:39;98371.03;;;20.23;72.69
6194;BME280;3130;41.564;23.280;2023-05-21T07:59:06;98379.16;;;20.28;73.23
6194;BME280;3130;41.564;23.280;2023-05-21T08:01:33;98385.81;;;20.38;73.83
6194;BME280;3130;41.564;23.280;2023-05-21T08:04:02;98354.06;;;20.34;74.31
6194;BME280;3130;41.564;23.280;2023-05-21T08:06:30;98370.44;;;20.59;73.42
6194;BME280;3130;41.564;23.280;2023-05-21T08:08:58;98375.50;;;20.52;73.40
6194;BME280;3130;41.564;23.280;2023-05-21T08:11:26;98372.00;;;20.22;73.30
6194;BME280;3130;41.564;23.280;2023-05-21T08:13:55;98392.31;;;20.42;73.20
6194;BME280;3130;41.564;23.280;2023-05-21T08:16:22;98380.25;;;20.49;73.20
6194;BME280;3130;41.564;23.280;2023-05-21T08:18:49;98374.22;;;20.56;73.16
6194;BME280;3130;41.564;23.280;2023-05-21T08:21:16;98381.19;;;20.64;73.91
6194;BME280;3130;41.564;23.280;2023-05-21T08:23:44;98375.97;;;20.72;74.38
6194;BME280;3130;41.564;23.280;2023-05-21T08:26:11;98378.22;;;20.83;74.65
6194;BME280;3130;41.564;23.280;2023-05-21T08:28:40;98368.59;;;20.83;75.56
6194;BME280;3130;41.564;23.280;2023-05-21T08:31:09;98387.00;;;20.74;74.83
6194;BME280;3130;41.564;23.280;2023-05-21T08:33:37;98394.72;;;20.59;74.83
6194;BME280;3130;41.564;23.280;2023-05-21T08:36:05;98384.97;;;20.53;74.43
6194;BME280;3130;41.564;23.280;2023-05-21T08:38:32;98400.72;;;20.68;74.87
6194;BME280;3130;41.564;23.280;2023-05-21T08:41:00;98403.28;;;20.76;75.31
6194;BME280;3130;41.564;23.280;2023-05-21T08:43:29;98390.13;;;20.69;75.71
6194;BME280;3130;41.564;23.280;2023-05-21T08:45:56;98412.75;;;20.85;75.51
6194;BME280;3130;41.564;23.280;2023-05-21T08:48:29;98412.44;;;20.88;76.13
6194;BME280;3130;41.564;23.280;2023-05-21T08:50:58;98409.19;;;20.86;76.40
6194;BME280;3130;41.564;23.280;2023-05-21T08:53:25;98412.44;;;20.80;76.39
6194;BME280;3130;41.564;23.280;2023-05-21T08:55:54;98391.19;;;20.21;77.04
6194;BME280;3130;41.564;23.280;2023-05-21T08:58:21;98396.41;;;20.13;77.78
6194;BME280;3130;41.564;23.280;2023-05-21T09:00:49;98420.00;;;20.35;77.67
6194;BME280;3130;41.564;23.280;2023-05-21T09:03:16;98425.38;;;20.41;77.20
6194;BME280;3130;41.564;23.280;2023-05-21T09:05:48;98407.47;;;20.46;77.05
6194;BME280;3130;41.564;23.280;2023-05-21T09:08:17;98408.91;;;20.49;76.98
6194;BME280;3130;41.564;23.280;2023-05-21T09:10:47;98410.88;;;20.47;77.79
6194;BME280;3130;41.564;23.280;2023-05-21T09:13:16;98410.06;;;20.38;79.30
6194;BME280;3130;41.564;23.280;2023-05-21T09:15:43;98415.59;;;20.35;79.90
6194;BME280;3130;41.564;23.280;2023-05-21T09:18:11;98401.13;;;20.25;81.40
6194;BME280;3130;41.564;23.280;2023-05-21T09:20:39;98413.00;;;20.43;81.94
6194;BME280;3130;41.564;23.280;2023-05-21T09:23:07;98412.81;;;20.45;82.61
6194;BME280;3130;41.564;23.280;2023-05-21T09:25:41;98418.31;;;20.66;82.61
6194;BME280;3130;41.564;23.280;2023-05-21T09:28:11;98411.38;;;20.42;82.72
6194;BME280;3130;41.564;23.280;2023-05-21T09:30:43;98399.97;;;20.43;82.70
6194;BME280;3130;41.564;23.280;2023-05-21T09:33:11;98428.56;;;20.67;82.90
6194;BME280;3130;41.564;23.280;2023-05-21T09:35:43;98416.03;;;20.63;81.04
6194;BME280;3130;41.564;23.280;2023-05-21T09:38:13;98408.88;;;20.65;80.88
6194;BME280;3130;41.564;23.280;2023-05-21T09:40:43;98420.94;;;20.58;79.85
6194;BME280;3130;41.564;23.280;2023-05-21T09:43:28;98431.19;;;20.51;77.11
6194;BME280;3130;41.564;23.280;2023-05-21T09:45:55;98426.97;;;20.58;74.89
6194;BME280;3130;41.564;23.280;2023-05-21T09:48:32;98415.91;;;20.56;72.54
6194;BME280;3130;41.564;23.280;2023-05-21T09:51:10;98407.06;;;20.73;70.89
6194;BME280;3130;41.564;23.280;2023-05-21T09:53:49;98422.28;;;21.16;72.20
6194;BME280;3130;41.564;23.280;2023-05-21T09:56:19;98350.13;;;21.01;69.01
6194;BME280;3130;41.564;23.280;2023-05-21T09:58:51;98384.69;;;21.33;67.06
6194;BME280;3130;41.564;23.280;2023-05-21T10:01:19;98426.28;;;21.87;60.55
6194;BME280;3130;41.564;23.280;2023-05-21T10:03:49;98372.09;;;21.89;59.20
6194;BME280;3130;41.564;23.280;2023-05-21T10:06:19;98390.28;;;22.20;57.29
6194;BME280;3130;41.564;23.280;2023-05-21T10:08:51;98426.59;;;22.80;53.35
6194;BME280;3130;41.564;23.280;2023-05-21T10:11:21;98435.75;;;23.13;52.08
6194;BME280;3130;41.564;23.280;2023-05-21T10:13:54;98433.25;;;23.41;50.55
6194;BME280;3130;41.564;23.280;2023-05-21T10:16:22;98411.16;;;23.43;48.97
6194;BME280;3130;41.564;23.280;2023-05-21T10:18:50;98429.44;;;23.57;47.07
6194;BME280;3130;41.564;23.280;2023-05-21T10:21:20;98427.50;;;23.80;44.96
6194;BME280;3130;41.564;23.280;2023-05-21T10:23:50;98302.13;;;23.15;45.32
6194;BME280;3130;41.564;23.280;2023-05-21T10:26:18;98420.97;;;23.91;45.86
6194;BME280;3130;41.564;23.280;2023-05-21T10:28:46;98417.09;;;23.87;45.78
6194;BME280;3130;41.564;23.280;2023-05-21T10:31:14;98412.59;;;24.02;45.42
6194;BME280;3130;41.564;23.280;2023-05-21T10:33:42;98396.41;;;23.92;43.99
6194;BME280;3130;41.564;23.280;2023-05-21T10:36:10;98403.16;;;24.07;44.00
6194;BME280;3130;41.564;23.280;2023-05-21T10:38:38;98404.16;;;24.27;44.05
6194;BME280;3130;41.564;23.280;2023-05-21T10:41:07;98299.72;;;23.55;43.71
6194;BME280;3130;41.564;23.280;2023-05-21T10:43:44;98360.91;;;23.89;42.17
6194;BME280;3130;41.564;23.280;2023-05-21T10:46:27;98391.78;;;23.94;44.49
6194;BME280;3130;41.564;23.280;2023-05-21T10:49:12;98365.06;;;23.42;46.90
6194;BME280;3130;41.564;23.280;2023-05-21T10:51:50;98276.59;;;23.38;46.40
6194;BME280;3130;41.564;23.280;2023-05-21T10:54:57;98374.63;;;24.19;45.62
6194;BME280;3130;41.564;23.280;2023-05-21T10:57:45;98392.84;;;23.99;44.84
6194;BME280;3130;41.564;23.280;2023-05-21T11:00:18;98389.56;;;23.76;43.54
6194;BME280;3130;41.564;23.280;2023-05-21T11:02:47;98389.66;;;23.83;41.10
6194;BME280;3130;41.564;23.280;2023-05-21T11:05:16;98376.00;;;23.87;40.19
6194;BME280;3130;41.564;23.280;2023-05-21T11:08:00;98378.78;;;23.86;41.84
6194;BME280;3130;41.564;23.280;2023-05-21T11:10:48;98379.06;;;23.91;41.74
6194;BME280;3130;41.564;23.280;2023-05-21T11:13:18;98386.53;;;23.94;41.57
6194;BME280;3130;41.564;23.280;2023-05-21T11:16:05;98377.38;;;24.04;41.59
6194;BME280;3130;41.564;23.280;2023-05-21T11:19:00;98379.38;;;24.02;44.95
6194;BME280;3130;41.564;23.280;2023-05-21T11:21:29;98386.84;;;24.05;45.46
6194;BME280;3130;41.564;23.280;2023-05-21T11:24:02;98386.50;;;23.87;44.41
6194;BME280;3130;41.564;23.280;2023-05-21T11:26:58;98377.53;;;23.82;43.29
6194;BME280;3130;41.564;23.280;2023-05-21T11:29:43;98375.69;;;23.41;44.08
6194;BME280;3130;41.564;23.280;2023-05-21T11:32:14;98379.22;;;23.33;44.55
6194;BME280;3130;41.564;23.280;2023-05-21T11:34:45;98369.09;;;23.44;43.44
6194;BME280;3130;41.564;23.280;2023-05-21T11:37:37;98384.63;;;23.67;42.77
6194;BME280;3130;41.564;23.280;2023-05-21T11:40:16;98381.88;;;23.54;43.30
6194;BME280;3130;41.564;23.280;2023-05-21T11:42:48;98385.63;;;23.66;43.95
6194;BME280;3130;41.564;23.280;2023-05-21T11:45:18;98261.72;;;22.82;43.05
6194;BME280;3130;41.564;23.280;2023-05-21T11:47:46;98387.25;;;23.67;42.13
6194;BME280;3130;41.564;23.280;2023-05-21T11:50:14;98384.41;;;23.83;41.98
6194;BME280;3130;41.564;23.280;2023-05-21T11:52:42;98372.41;;;23.88;41.04
6194;BME280;3130;41.564;23.280;2023-05-21T11:55:10;98372.81;;;23.92;41.46
6194;BME280;3130;41.564;23.280;2023-05-21T11:57:40;98364.13;;;23.70;40.21
6194;BME280;3130;41.564;23.280;2023-05-21T12:00:13;98302.00;;;23.23;40.79
6194;BME280;3130;41.564;23.280;2023-05-21T12:02:49;98242.41;;;23.18;40.98
6194;BME280;3130;41.564;23.280;2023-05-21T12:05:16;98373.06;;;23.97;40.84
6194;BME280;3130;41.564;23.280;2023-05-21T12:07:45;98334.13;;;23.73;40.99
6194;BME280;3130;41.564;23.280;2023-05-21T12:10:14;98378.00;;;24.06;40.85
6194;BME280;3130;41.564;23.280;2023-05-21T12:12:42;98366.34;;;24.15;41.99
6194;BME280;3130;41.564;23.280;2023-05-21T12:15:10;98366.66;;;24.27;42.90
6194;BME280;3130;41.564;23.280;2023-05-21T12:17:38;98361.41;;;24.27;43.00
6194;BME280;3130;41.564;23.280;2023-05-21T12:20:07;98358.16;;;24.25;42.78
6194;BME280;3130;41.564;23.280;2023-05-21T12:22:39;98361.03;;;24.02;43.21
6194;BME280;3130;41.564;23.280;2023-05-21T12:25:08;98308.88;;;23.44;43.97
6194;BME280;3130;41.564;23.280;2023-05-21T12:27:36;98357.81;;;23.44;43.14
6194;BME280;3130;41.564;23.280;2023-05-21T12:30:05;98370.13;;;23.29;43.50
6194;BME280;3130;41.564;23.280;2023-05-21T12:32:33;98356.44;;;23.27;44.04
6194;BME280;3130;41.564;23.280;2023-05-21T12:35:00;98350.03;;;23.15;45.06
6194;BME280;3130;41.564;23.280;2023-05-21T12:37:29;98342.94;;;23.09;46.42
6194;BME280;3130;41.564;23.280;2023-05-21T12:39:58;98358.69;;;23.01;46.46
6194;BME280;3130;41.564;23.280;2023-05-21T12:42:26;98359.50;;;23.16;46.24
6194;BME280;3130;41.564;23.280;2023-05-21T12:44:54;98358.59;;;23.24;46.40
6194;BME280;3130;41.564;23.280;2023-05-21T12:47:22;98357.78;;;23.23;46.18
6194;BME280;3130;41.564;23.280;2023-05-21T12:49:53;98363.34;;;23.35;45.55
6194;BME280;3130;41.564;23.280;2023-05-21T12:52:22;98353.13;;;23.19;45.65
6194;BME280;3130;41.564;23.280;2023-05-21T12:54:52;98341.03;;;23.39;45.52
6194;BME280;3130;41.564;23.280;2023-05-21T12:57:21;98259.31;;;22.87;44.86
6194;BME280;3130;41.564;23.280;2023-05-21T12:59:50;98340.09;;;23.46;45.17
6194;BME280;3130;41.564;23.280;2023-05-21T13:02:19;98345.03;;;23.35;45.43
6194;BME280;3130;41.564;23.280;2023-05-21T13:04:47;98333.19;;;23.18;45.52
6194;BME280;3130;41.564;23.280;2023-05-21T13:07:14;98292.50;;;23.01;46.17
6194;BME280;3130;41.564;23.280;2023-05-21T13:09:42;98333.63;;;23.42;44.98
6194;BME280;3130;41.564;23.280;2023-05-21T13:12:11;98340.97;;;23.32;44.50
6194;BME280;3130;41.564;23.280;2023-05-21T13:14:39;98326.31;;;23.17;44.42
6194;BME280;3130;41.564;23.280;2023-05-21T13:17:06;98347.09;;;23.39;44.67
6194;BME280;3130;41.564;23.280;2023-05-21T13:19:34;98263.72;;;23.01;45.04